Terminal Aerodrome Forecast
Issued by NWS

Home | Current Version | Previous Version | Text Only | Print | Product List | Glossary On
Versions: 1 2 3 4 5 6 7 8 9 10 11 12 13 14 15 16 17 18 19 20 21 22 23
000
FTUS43 KLSX 041326 AAA
TAFCPS
TAF AMD
KCPS 041326Z 0413/0512 00000KT 6SM HZ SKC
     FM041400 04004KT P6SM FEW025
     FM042100 10006KT P6SM FEW035
     FM050200 13005KT 6SM HZ SCT250=

USA.gov is the U.S. government's official web portal to all federal, state and local government web resources and services.